< < Back
Terminal Aerodrome Forecast


Current Version              Previous Versions:   1  2  3  4  5  6  7  8  9  

Terminal Aerodrome Forecast

477
FTUS42 KMLB 241700
TAFDAB
TAF
KDAB 241732Z 2418/2518 11008KT P6SM FEW040
     FM250100 VRB03KT P6SM FEW080 SCT250
     FM251400 25008KT P6SM FEW040=

Latest METAR

015
SAUS80 KWBC 250900
MTRDAB
METAR KDAB 250853Z 29003KT 9SM CLR 19/18 A2995 RMK AO2 SLP139 CONS LTG
DSNT E T01890178 55004


USA.gov is the U.S. government's official web portal to all federal, state and local government web resources and services.